sensor_id;sensor_type;location;lat;lon;timestamp;temperature;humidity
8313;DHT22;4194;43.408;24.626;2023-03-23T00:02:38;9.30;99.90
8313;DHT22;4194;43.408;24.626;2023-03-23T00:05:07;9.00;99.90
8313;DHT22;4194;43.408;24.626;2023-03-23T00:07:34;9.70;99.90
8313;DHT22;4194;43.408;24.626;2023-03-23T00:10:00;10.40;99.90
8313;DHT22;4194;43.408;24.626;2023-03-23T00:14:59;8.30;99.90
8313;DHT22;4194;43.408;24.626;2023-03-23T00:17:27;9.00;99.90
8313;DHT22;4194;43.408;24.626;2023-03-23T00:19:52;9.00;99.90
8313;DHT22;4194;43.408;24.626;2023-03-23T00:22:18;10.40;99.90
8313;DHT22;4194;43.408;24.626;2023-03-23T00:24:47;9.60;99.90
8313;DHT22;4194;43.408;24.626;2023-03-23T00:27:16;9.00;99.90
8313;DHT22;4194;43.408;24.626;2023-03-23T00:29:42;8.70;99.90
8313;DHT22;4194;43.408;24.626;2023-03-23T00:32:10;8.80;99.90
8313;DHT22;4194;43.408;24.626;2023-03-23T00:34:40;9.60;99.90
8313;DHT22;4194;43.408;24.626;2023-03-23T00:37:07;9.10;99.90
8313;DHT22;4194;43.408;24.626;2023-03-23T00:39:33;9.20;99.90
8313;DHT22;4194;43.408;24.626;2023-03-23T00:42:02;8.10;99.90
8313;DHT22;4194;43.408;24.626;2023-03-23T00:44:28;8.40;99.90
8313;DHT22;4194;43.408;24.626;2023-03-23T00:46:56;9.00;99.90
8313;DHT22;4194;43.408;24.626;2023-03-23T00:49:23;9.70;99.90
8313;DHT22;4194;43.408;24.626;2023-03-23T00:51:56;8.90;99.90
8313;DHT22;4194;43.408;24.626;2023-03-23T00:54:23;8.70;99.90
8313;DHT22;4194;43.408;24.626;2023-03-23T00:56:49;8.00;99.90
8313;DHT22;4194;43.408;24.626;2023-03-23T00:59:15;8.80;99.90
8313;DHT22;4194;43.408;24.626;2023-03-23T01:01:41;8.90;99.90
8313;DHT22;4194;43.408;24.626;2023-03-23T01:04:08;8.60;99.90
8313;DHT22;4194;43.408;24.626;2023-03-23T01:06:39;9.20;99.90
8313;DHT22;4194;43.408;24.626;2023-03-23T01:09:10;8.70;99.90
8313;DHT22;4194;43.408;24.626;2023-03-23T01:11:36;8.70;99.90
8313;DHT22;4194;43.408;24.626;2023-03-23T01:14:03;8.00;99.90
8313;DHT22;4194;43.408;24.626;2023-03-23T01:16:29;8.90;99.90
8313;DHT22;4194;43.408;24.626;2023-03-23T01:21:21;9.80;99.90
8313;DHT22;4194;43.408;24.626;2023-03-23T01:23:48;8.50;99.90
8313;DHT22;4194;43.408;24.626;2023-03-23T01:26:16;8.80;99.90
8313;DHT22;4194;43.408;24.626;2023-03-23T01:28:43;8.40;99.90
8313;DHT22;4194;43.408;24.626;2023-03-23T01:31:15;8.30;99.90
8313;DHT22;4194;43.408;24.626;2023-03-23T01:33:41;8.20;99.90
8313;DHT22;4194;43.408;24.626;2023-03-23T01:36:15;7.90;99.90
8313;DHT22;4194;43.408;24.626;2023-03-23T01:41:13;8.60;99.90
8313;DHT22;4194;43.408;24.626;2023-03-23T01:46:35;10.10;99.90
8313;DHT22;4194;43.408;24.626;2023-03-23T01:49:11;9.20;99.90
8313;DHT22;4194;43.408;24.626;2023-03-23T01:51:48;8.50;99.90
8313;DHT22;4194;43.408;24.626;2023-03-23T01:54:17;8.60;99.90
8313;DHT22;4194;43.408;24.626;2023-03-23T01:56:50;8.80;99.90
8313;DHT22;4194;43.408;24.626;2023-03-23T02:01:43;8.60;99.90
8313;DHT22;4194;43.408;24.626;2023-03-23T02:04:12;8.90;99.90
8313;DHT22;4194;43.408;24.626;2023-03-23T02:06:39;9.20;99.90
8313;DHT22;4194;43.408;24.626;2023-03-23T02:09:05;9.20;99.90
8313;DHT22;4194;43.408;24.626;2023-03-23T02:11:34;10.10;99.90
8313;DHT22;4194;43.408;24.626;2023-03-23T02:14:00;8.90;99.90
8313;DHT22;4194;43.408;24.626;2023-03-23T02:20:18;9.10;99.90
8313;DHT22;4194;43.408;24.626;2023-03-23T02:33:44;9.00;99.90
8313;DHT22;4194;43.408;24.626;2023-03-23T02:39:28;9.00;99.90
8313;DHT22;4194;43.408;24.626;2023-03-23T02:44:35;8.30;99.90
8313;DHT22;4194;43.408;24.626;2023-03-23T02:47:04;9.70;99.90
8313;DHT22;4194;43.408;24.626;2023-03-23T02:49:32;8.80;99.90
8313;DHT22;4194;43.408;24.626;2023-03-23T02:52:04;8.30;99.90
8313;DHT22;4194;43.408;24.626;2023-03-23T02:56:57;7.50;99.90
8313;DHT22;4194;43.408;24.626;2023-03-23T02:59:23;9.00;99.90
8313;DHT22;4194;43.408;24.626;2023-03-23T03:01:52;9.80;99.90
8313;DHT22;4194;43.408;24.626;2023-03-23T03:04:22;9.10;99.90
8313;DHT22;4194;43.408;24.626;2023-03-23T03:17:31;9.10;99.90
8313;DHT22;4194;43.408;24.626;2023-03-23T03:20:03;9.40;99.90
8313;DHT22;4194;43.408;24.626;2023-03-23T03:22:33;7.90;99.90
8313;DHT22;4194;43.408;24.626;2023-03-23T03:25:03;10.30;99.90
8313;DHT22;4194;43.408;24.626;2023-03-23T03:27:30;8.00;99.90
8313;DHT22;4194;43.408;24.626;2023-03-23T03:29:59;10.20;99.90
8313;DHT22;4194;43.408;24.626;2023-03-23T03:32:34;7.80;99.90
8313;DHT22;4194;43.408;24.626;2023-03-23T03:35:02;9.10;99.90
8313;DHT22;4194;43.408;24.626;2023-03-23T03:37:34;9.70;99.90
8313;DHT22;4194;43.408;24.626;2023-03-23T03:40:04;9.50;99.90
8313;DHT22;4194;43.408;24.626;2023-03-23T03:42:33;8.80;99.90
8313;DHT22;4194;43.408;24.626;2023-03-23T03:44:59;10.30;99.90
8313;DHT22;4194;43.408;24.626;2023-03-23T03:47:24;9.50;99.90
8313;DHT22;4194;43.408;24.626;2023-03-23T03:49:50;9.10;99.90
8313;DHT22;4194;43.408;24.626;2023-03-23T03:52:16;10.30;99.90
8313;DHT22;4194;43.408;24.626;2023-03-23T03:54:41;9.10;99.90
8313;DHT22;4194;43.408;24.626;2023-03-23T03:59:33;8.20;99.90
8313;DHT22;4194;43.408;24.626;2023-03-23T04:01:59;8.40;99.90
8313;DHT22;4194;43.408;24.626;2023-03-23T04:06:51;9.90;99.90
8313;DHT22;4194;43.408;24.626;2023-03-23T04:14:10;8.30;99.90
8313;DHT22;4194;43.408;24.626;2023-03-23T04:16:36;10.10;99.90
8313;DHT22;4194;43.408;24.626;2023-03-23T04:19:02;10.20;99.90
8313;DHT22;4194;43.408;24.626;2023-03-23T04:21:27;9.10;99.90
8313;DHT22;4194;43.408;24.626;2023-03-23T04:23:57;7.70;99.90
8313;DHT22;4194;43.408;24.626;2023-03-23T04:26:26;9.30;99.90
8313;DHT22;4194;43.408;24.626;2023-03-23T04:28:54;9.20;99.90
8313;DHT22;4194;43.408;24.626;2023-03-23T04:31:20;10.20;99.90
8313;DHT22;4194;43.408;24.626;2023-03-23T04:33:50;9.80;99.90
8313;DHT22;4194;43.408;24.626;2023-03-23T04:41:10;7.40;99.90
8313;DHT22;4194;43.408;24.626;2023-03-23T04:43:36;7.80;99.90
8313;DHT22;4194;43.408;24.626;2023-03-23T04:46:07;9.20;99.90
8313;DHT22;4194;43.408;24.626;2023-03-23T04:48:34;9.50;99.90
8313;DHT22;4194;43.408;24.626;2023-03-23T04:51:02;10.60;99.90
8313;DHT22;4194;43.408;24.626;2023-03-23T04:53:30;7.90;99.90
8313;DHT22;4194;43.408;24.626;2023-03-23T04:55:56;9.60;99.90
8313;DHT22;4194;43.408;24.626;2023-03-23T04:58:22;8.80;99.90
8313;DHT22;4194;43.408;24.626;2023-03-23T05:00:50;9.40;99.90
8313;DHT22;4194;43.408;24.626;2023-03-23T05:03:17;9.20;99.90
8313;DHT22;4194;43.408;24.626;2023-03-23T05:05:43;10.20;99.90
8313;DHT22;4194;43.408;24.626;2023-03-23T05:08:13;8.40;99.90
8313;DHT22;4194;43.408;24.626;2023-03-23T05:10:39;10.30;99.90
8313;DHT22;4194;43.408;24.626;2023-03-23T05:15:31;9.40;99.90
8313;DHT22;4194;43.408;24.626;2023-03-23T05:17:57;10.20;99.90
8313;DHT22;4194;43.408;24.626;2023-03-23T05:20:22;9.80;99.90
8313;DHT22;4194;43.408;24.626;2023-03-23T05:22:50;10.00;99.90
8313;DHT22;4194;43.408;24.626;2023-03-23T05:27:46;11.60;99.90
8313;DHT22;4194;43.408;24.626;2023-03-23T05:30:15;9.40;99.90
8313;DHT22;4194;43.408;24.626;2023-03-23T05:32:43;10.40;99.90
8313;DHT22;4194;43.408;24.626;2023-03-23T05:35:10;9.90;99.90
8313;DHT22;4194;43.408;24.626;2023-03-23T05:37:37;10.20;99.90
8313;DHT22;4194;43.408;24.626;2023-03-23T05:40:04;9.50;99.90
8313;DHT22;4194;43.408;24.626;2023-03-23T05:42:32;9.80;99.90
8313;DHT22;4194;43.408;24.626;2023-03-23T05:44:59;9.70;99.90
8313;DHT22;4194;43.408;24.626;2023-03-23T05:47:24;11.70;99.90
8313;DHT22;4194;43.408;24.626;2023-03-23T05:49:53;10.60;99.90
8313;DHT22;4194;43.408;24.626;2023-03-23T05:52:19;10.60;99.90
8313;DHT22;4194;43.408;24.626;2023-03-23T05:54:46;11.60;99.90
8313;DHT22;4194;43.408;24.626;2023-03-23T05:59:38;10.30;99.90
8313;DHT22;4194;43.408;24.626;2023-03-23T06:02:04;10.30;99.90
8313;DHT22;4194;43.408;24.626;2023-03-23T06:04:30;10.60;99.90
8313;DHT22;4194;43.408;24.626;2023-03-23T06:07:02;9.70;99.90
8313;DHT22;4194;43.408;24.626;2023-03-23T06:09:27;11.30;99.90
8313;DHT22;4194;43.408;24.626;2023-03-23T06:11:53;11.70;99.90
8313;DHT22;4194;43.408;24.626;2023-03-23T06:16:45;10.80;99.90
8313;DHT22;4194;43.408;24.626;2023-03-23T06:19:10;10.80;99.90
8313;DHT22;4194;43.408;24.626;2023-03-23T06:21:36;10.80;99.90
8313;DHT22;4194;43.408;24.626;2023-03-23T06:26:32;10.30;99.90
8313;DHT22;4194;43.408;24.626;2023-03-23T06:28:59;10.30;99.90
8313;DHT22;4194;43.408;24.626;2023-03-23T06:31:26;11.70;99.90
8313;DHT22;4194;43.408;24.626;2023-03-23T06:33:52;12.20;99.90
8313;DHT22;4194;43.408;24.626;2023-03-23T06:36:19;10.80;99.90
8313;DHT22;4194;43.408;24.626;2023-03-23T06:38:44;11.00;99.90
8313;DHT22;4194;43.408;24.626;2023-03-23T06:41:11;11.90;99.90
8313;DHT22;4194;43.408;24.626;2023-03-23T06:43:37;10.20;99.90
8313;DHT22;4194;43.408;24.626;2023-03-23T06:46:05;11.30;99.90
8313;DHT22;4194;43.408;24.626;2023-03-23T06:48:31;11.50;99.90
8313;DHT22;4194;43.408;24.626;2023-03-23T06:50:57;11.20;99.90
8313;DHT22;4194;43.408;24.626;2023-03-23T06:53:23;11.10;99.90
8313;DHT22;4194;43.408;24.626;2023-03-23T06:55:50;10.60;99.90
8313;DHT22;4194;43.408;24.626;2023-03-23T06:58:16;11.70;99.90
8313;DHT22;4194;43.408;24.626;2023-03-23T07:00:42;10.60;99.90
8313;DHT22;4194;43.408;24.626;2023-03-23T07:05:34;10.90;99.90
8313;DHT22;4194;43.408;24.626;2023-03-23T07:08:21;11.50;99.90
8313;DHT22;4194;43.408;24.626;2023-03-23T07:10:47;12.10;99.90
8313;DHT22;4194;43.408;24.626;2023-03-23T07:13:13;13.20;99.90
8313;DHT22;4194;43.408;24.626;2023-03-23T07:15:39;12.20;99.90
8313;DHT22;4194;43.408;24.626;2023-03-23T07:18:05;13.30;99.90
8313;DHT22;4194;43.408;24.626;2023-03-23T07:20:31;10.70;99.90
8313;DHT22;4194;43.408;24.626;2023-03-23T07:22:57;13.70;99.90
8313;DHT22;4194;43.408;24.626;2023-03-23T07:25:22;13.10;99.90
8313;DHT22;4194;43.408;24.626;2023-03-23T07:27:48;14.70;99.90
8313;DHT22;4194;43.408;24.626;2023-03-23T07:30:14;12.90;99.90
8313;DHT22;4194;43.408;24.626;2023-03-23T07:32:40;14.80;99.90
8313;DHT22;4194;43.408;24.626;2023-03-23T07:35:08;13.40;99.90
8313;DHT22;4194;43.408;24.626;2023-03-23T07:37:34;13.50;99.90
8313;DHT22;4194;43.408;24.626;2023-03-23T07:40:01;13.10;99.90
8313;DHT22;4194;43.408;24.626;2023-03-23T07:42:43;12.80;99.90
8313;DHT22;4194;43.408;24.626;2023-03-23T07:45:11;12.60;99.90
8313;DHT22;4194;43.408;24.626;2023-03-23T07:47:38;14.70;99.90
8313;DHT22;4194;43.408;24.626;2023-03-23T07:50:04;12.20;99.90
8313;DHT22;4194;43.408;24.626;2023-03-23T07:54:56;13.30;99.90
8313;DHT22;4194;43.408;24.626;2023-03-23T08:02:14;13.30;99.90
8313;DHT22;4194;43.408;24.626;2023-03-23T08:04:40;13.70;99.90
8313;DHT22;4194;43.408;24.626;2023-03-23T08:07:08;13.40;99.90
8313;DHT22;4194;43.408;24.626;2023-03-23T08:09:33;15.10;99.90
8313;DHT22;4194;43.408;24.626;2023-03-23T08:11:59;13.60;99.90
8313;DHT22;4194;43.408;24.626;2023-03-23T08:14:25;12.80;99.90
8313;DHT22;4194;43.408;24.626;2023-03-23T08:16:53;14.10;99.90
8313;DHT22;4194;43.408;24.626;2023-03-23T08:19:20;13.90;99.90
8313;DHT22;4194;43.408;24.626;2023-03-23T08:21:46;14.60;99.90
8313;DHT22;4194;43.408;24.626;2023-03-23T08:24:12;13.90;99.90
8313;DHT22;4194;43.408;24.626;2023-03-23T08:26:38;14.30;99.90
8313;DHT22;4194;43.408;24.626;2023-03-23T08:29:05;14.50;99.90
8313;DHT22;4194;43.408;24.626;2023-03-23T08:31:31;15.30;99.90
8313;DHT22;4194;43.408;24.626;2023-03-23T08:34:00;14.30;99.90
8313;DHT22;4194;43.408;24.626;2023-03-23T08:36:26;15.30;99.90
8313;DHT22;4194;43.408;24.626;2023-03-23T08:38:53;14.80;99.90
8313;DHT22;4194;43.408;24.626;2023-03-23T08:41:19;14.80;99.90
8313;DHT22;4194;43.408;24.626;2023-03-23T08:43:45;15.40;99.90
8313;DHT22;4194;43.408;24.626;2023-03-23T08:46:12;15.10;99.90
8313;DHT22;4194;43.408;24.626;2023-03-23T08:48:38;15.20;99.90
8313;DHT22;4194;43.408;24.626;2023-03-23T08:51:05;15.10;99.90
8313;DHT22;4194;43.408;24.626;2023-03-23T08:53:32;15.30;99.90
8313;DHT22;4194;43.408;24.626;2023-03-23T08:56:06;15.60;99.90
8313;DHT22;4194;43.408;24.626;2023-03-23T08:58:36;14.90;99.90
8313;DHT22;4194;43.408;24.626;2023-03-23T09:01:03;14.90;99.90
8313;DHT22;4194;43.408;24.626;2023-03-23T09:03:30;14.40;99.90
8313;DHT22;4194;43.408;24.626;2023-03-23T09:06:00;15.70;99.90
8313;DHT22;4194;43.408;24.626;2023-03-23T09:08:27;14.40;99.90
8313;DHT22;4194;43.408;24.626;2023-03-23T09:10:57;17.10;99.90
8313;DHT22;4194;43.408;24.626;2023-03-23T09:13:23;15.30;99.90
8313;DHT22;4194;43.408;24.626;2023-03-23T09:15:49;15.70;99.90
8313;DHT22;4194;43.408;24.626;2023-03-23T09:18:15;16.90;99.90
8313;DHT22;4194;43.408;24.626;2023-03-23T09:20:42;15.50;99.90
8313;DHT22;4194;43.408;24.626;2023-03-23T09:23:09;15.30;99.90
8313;DHT22;4194;43.408;24.626;2023-03-23T09:25:35;16.00;98.90
8313;DHT22;4194;43.408;24.626;2023-03-23T09:28:01;17.40;99.10
8313;DHT22;4194;43.408;24.626;2023-03-23T09:30:29;16.80;97.30
8313;DHT22;4194;43.408;24.626;2023-03-23T09:32:56;16.90;98.40
8313;DHT22;4194;43.408;24.626;2023-03-23T09:35:23;15.70;98.00
8313;DHT22;4194;43.408;24.626;2023-03-23T09:37:51;17.10;96.60
8313;DHT22;4194;43.408;24.626;2023-03-23T09:43:02;15.90;93.60
8313;DHT22;4194;43.408;24.626;2023-03-23T09:45:52;16.00;94.60
8313;DHT22;4194;43.408;24.626;2023-03-23T09:51:00;16.20;95.20
8313;DHT22;4194;43.408;24.626;2023-03-23T09:53:39;14.80;93.30
8313;DHT22;4194;43.408;24.626;2023-03-23T09:56:15;17.30;96.00
8313;DHT22;4194;43.408;24.626;2023-03-23T09:58:50;17.70;95.50
8313;DHT22;4194;43.408;24.626;2023-03-23T10:01:25;16.30;95.50
8313;DHT22;4194;43.408;24.626;2023-03-23T10:03:59;14.50;94.80
8313;DHT22;4194;43.408;24.626;2023-03-23T10:06:27;16.50;95.10
8313;DHT22;4194;43.408;24.626;2023-03-23T10:08:55;16.20;95.00
8313;DHT22;4194;43.408;24.626;2023-03-23T10:16:29;15.70;93.90
8313;DHT22;4194;43.408;24.626;2023-03-23T10:21:24;16.00;93.20
8313;DHT22;4194;43.408;24.626;2023-03-23T10:24:03;16.30;93.40
8313;DHT22;4194;43.408;24.626;2023-03-23T10:27:10;16.40;92.00
8313;DHT22;4194;43.408;24.626;2023-03-23T10:30:22;15.40;90.70
8313;DHT22;4194;43.408;24.626;2023-03-23T10:33:10;18.20;90.60
8313;DHT22;4194;43.408;24.626;2023-03-23T10:36:13;17.60;87.30
8313;DHT22;4194;43.408;24.626;2023-03-23T10:38:47;18.20;88.50
8313;DHT22;4194;43.408;24.626;2023-03-23T10:41:18;19.90;80.60
8313;DHT22;4194;43.408;24.626;2023-03-23T10:43:45;19.70;73.80
8313;DHT22;4194;43.408;24.626;2023-03-23T10:46:37;20.50;74.70
8313;DHT22;4194;43.408;24.626;2023-03-23T10:49:08;21.00;72.50
8313;DHT22;4194;43.408;24.626;2023-03-23T10:51:41;21.90;68.20
8313;DHT22;4194;43.408;24.626;2023-03-23T10:54:07;20.50;67.40
8313;DHT22;4194;43.408;24.626;2023-03-23T10:56:42;19.20;69.60
8313;DHT22;4194;43.408;24.626;2023-03-23T10:59:20;21.10;72.00
8313;DHT22;4194;43.408;24.626;2023-03-23T11:01:50;21.20;70.20
8313;DHT22;4194;43.408;24.626;2023-03-23T11:04:18;20.80;69.30
8313;DHT22;4194;43.408;24.626;2023-03-23T11:06:48;20.20;71.80
8313;DHT22;4194;43.408;24.626;2023-03-23T11:09:32;19.80;71.40
8313;DHT22;4194;43.408;24.626;2023-03-23T11:11:58;20.00;72.10
8313;DHT22;4194;43.408;24.626;2023-03-23T11:14:35;19.90;70.90
8313;DHT22;4194;43.408;24.626;2023-03-23T11:17:18;19.70;70.70
8313;DHT22;4194;43.408;24.626;2023-03-23T11:19:45;19.80;72.30
8313;DHT22;4194;43.408;24.626;2023-03-23T11:22:28;19.60;72.80
8313;DHT22;4194;43.408;24.626;2023-03-23T11:27:23;20.40;71.30
8313;DHT22;4194;43.408;24.626;2023-03-23T11:29:54;20.90;69.90
8313;DHT22;4194;43.408;24.626;2023-03-23T11:32:26;21.60;67.50
8313;DHT22;4194;43.408;24.626;2023-03-23T11:35:00;21.00;66.20
8313;DHT22;4194;43.408;24.626;2023-03-23T11:37:40;22.50;69.60
8313;DHT22;4194;43.408;24.626;2023-03-23T11:45:34;24.40;65.20
8313;DHT22;4194;43.408;24.626;2023-03-23T11:51:09;22.10;65.30
8313;DHT22;4194;43.408;24.626;2023-03-23T11:56:28;21.00;70.10
8313;DHT22;4194;43.408;24.626;2023-03-23T11:58:56;20.10;70.00
8313;DHT22;4194;43.408;24.626;2023-03-23T12:17:25;18.20;78.30
8313;DHT22;4194;43.408;24.626;2023-03-23T12:20:06;19.50;78.10
8313;DHT22;4194;43.408;24.626;2023-03-23T12:36:43;18.10;76.70
8313;DHT22;4194;43.408;24.626;2023-03-23T12:42:26;17.00;70.50
8313;DHT22;4194;43.408;24.626;2023-03-23T12:55:45;18.20;73.50
8313;DHT22;4194;43.408;24.626;2023-03-23T12:58:25;19.60;73.60
8313;DHT22;4194;43.408;24.626;2023-03-23T13:03:57;19.00;72.30
8313;DHT22;4194;43.408;24.626;2023-03-23T13:06:32;18.70;72.20
8313;DHT22;4194;43.408;24.626;2023-03-23T13:11:36;23.10;63.20
8313;DHT22;4194;43.408;24.626;2023-03-23T13:22:31;25.50;56.90
8313;DHT22;4194;43.408;24.626;2023-03-23T13:25:06;25.80;51.40
8313;DHT22;4194;43.408;24.626;2023-03-23T13:27:34;26.10;51.60
8313;DHT22;4194;43.408;24.626;2023-03-23T13:30:01;25.40;53.00
8313;DHT22;4194;43.408;24.626;2023-03-23T13:32:37;25.40;53.50
8313;DHT22;4194;43.408;24.626;2023-03-23T13:35:11;28.00;50.00
8313;DHT22;4194;43.408;24.626;2023-03-23T13:37:44;31.60;48.80
8313;DHT22;4194;43.408;24.626;2023-03-23T13:40:15;30.50;44.50
8313;DHT22;4194;43.408;24.626;2023-03-23T13:42:56;31.10;45.70
8313;DHT22;4194;43.408;24.626;2023-03-23T13:48:02;31.70;43.10
8313;DHT22;4194;43.408;24.626;2023-03-23T13:50:30;29.00;45.40
8313;DHT22;4194;43.408;24.626;2023-03-23T13:53:01;27.10;44.30
8313;DHT22;4194;43.408;24.626;2023-03-23T14:05:38;30.00;42.80
8313;DHT22;4194;43.408;24.626;2023-03-23T14:10:52;26.00;48.80
8313;DHT22;4194;43.408;24.626;2023-03-23T14:16:01;23.90;54.70
8313;DHT22;4194;43.408;24.626;2023-03-23T14:18:36;22.80;52.70
8313;DHT22;4194;43.408;24.626;2023-03-23T14:21:04;22.40;53.90
8313;DHT22;4194;43.408;24.626;2023-03-23T14:23:32;21.70;54.30
8313;DHT22;4194;43.408;24.626;2023-03-23T14:26:01;22.50;55.50
8313;DHT22;4194;43.408;24.626;2023-03-23T14:28:39;22.10;55.70
8313;DHT22;4194;43.408;24.626;2023-03-23T14:36:08;19.80;55.40
8313;DHT22;4194;43.408;24.626;2023-03-23T14:38:34;20.30;56.30
8313;DHT22;4194;43.408;24.626;2023-03-23T14:43:27;21.00;57.70
8313;DHT22;4194;43.408;24.626;2023-03-23T14:45:55;21.10;58.60
8313;DHT22;4194;43.408;24.626;2023-03-23T14:48:21;22.90;58.50
8313;DHT22;4194;43.408;24.626;2023-03-23T14:50:55;23.40;53.80
8313;DHT22;4194;43.408;24.626;2023-03-23T14:53:36;25.20;52.80
8313;DHT22;4194;43.408;24.626;2023-03-23T14:56:17;25.50;52.30
8313;DHT22;4194;43.408;24.626;2023-03-23T14:58:47;27.50;51.20
8313;DHT22;4194;43.408;24.626;2023-03-23T15:01:18;29.60;47.20
8313;DHT22;4194;43.408;24.626;2023-03-23T15:06:26;32.90;42.60
8313;DHT22;4194;43.408;24.626;2023-03-23T15:08:55;33.40;41.10
8313;DHT22;4194;43.408;24.626;2023-03-23T15:11:31;32.90;40.00
8313;DHT22;4194;43.408;24.626;2023-03-23T15:14:00;33.00;37.90
8313;DHT22;4194;43.408;24.626;2023-03-23T15:16:33;35.50;38.20
8313;DHT22;4194;43.408;24.626;2023-03-23T15:19:05;35.40;38.30
8313;DHT22;4194;43.408;24.626;2023-03-23T15:21:32;34.60;37.60
8313;DHT22;4194;43.408;24.626;2023-03-23T15:24:17;32.80;37.70
8313;DHT22;4194;43.408;24.626;2023-03-23T15:26:44;31.80;40.30
8313;DHT22;4194;43.408;24.626;2023-03-23T15:29:12;31.10;43.50
8313;DHT22;4194;43.408;24.626;2023-03-23T15:31:47;27.70;46.30
8313;DHT22;4194;43.408;24.626;2023-03-23T15:34:23;26.00;49.40
8313;DHT22;4194;43.408;24.626;2023-03-23T15:36:59;24.70;52.20
8313;DHT22;4194;43.408;24.626;2023-03-23T15:39:25;23.60;53.00
8313;DHT22;4194;43.408;24.626;2023-03-23T15:41:53;21.60;55.70
8313;DHT22;4194;43.408;24.626;2023-03-23T15:44:28;21.30;57.60
8313;DHT22;4194;43.408;24.626;2023-03-23T15:49:39;19.10;61.30
8313;DHT22;4194;43.408;24.626;2023-03-23T15:52:11;19.60;63.00
8313;DHT22;4194;43.408;24.626;2023-03-23T15:54:37;19.60;67.00
8313;DHT22;4194;43.408;24.626;2023-03-23T15:57:03;19.40;68.30
8313;DHT22;4194;43.408;24.626;2023-03-23T15:59:29;19.00;70.80
8313;DHT22;4194;43.408;24.626;2023-03-23T16:01:55;16.50;68.60
8313;DHT22;4194;43.408;24.626;2023-03-23T16:04:21;16.70;67.90
8313;DHT22;4194;43.408;24.626;2023-03-23T16:06:47;17.20;69.70
8313;DHT22;4194;43.408;24.626;2023-03-23T16:09:18;16.50;74.00
8313;DHT22;4194;43.408;24.626;2023-03-23T16:11:44;17.40;78.30
8313;DHT22;4194;43.408;24.626;2023-03-23T16:14:10;17.10;79.70
8313;DHT22;4194;43.408;24.626;2023-03-23T16:16:38;14.60;78.00
8313;DHT22;4194;43.408;24.626;2023-03-23T16:19:05;15.90;84.30
8313;DHT22;4194;43.408;24.626;2023-03-23T16:26:24;16.70;82.00
8313;DHT22;4194;43.408;24.626;2023-03-23T16:28:50;16.30;83.40
8313;DHT22;4194;43.408;24.626;2023-03-23T16:31:16;16.60;83.70
8313;DHT22;4194;43.408;24.626;2023-03-23T16:36:11;14.50;91.70
8313;DHT22;4194;43.408;24.626;2023-03-23T16:38:37;14.60;92.70
8313;DHT22;4194;43.408;24.626;2023-03-23T16:41:02;15.00;95.70
8313;DHT22;4194;43.408;24.626;2023-03-23T16:43:28;14.20;97.80
8313;DHT22;4194;43.408;24.626;2023-03-23T16:45:55;14.80;99.90
8313;DHT22;4194;43.408;24.626;2023-03-23T16:48:22;15.10;99.90
8313;DHT22;4194;43.408;24.626;2023-03-23T16:50:48;15.10;99.90
8313;DHT22;4194;43.408;24.626;2023-03-23T16:53:14;13.00;99.90
8313;DHT22;4194;43.408;24.626;2023-03-23T16:55:40;13.70;99.90
8313;DHT22;4194;43.408;24.626;2023-03-23T16:58:08;13.50;99.90
8313;DHT22;4194;43.408;24.626;2023-03-23T17:00:34;13.00;99.90
8313;DHT22;4194;43.408;24.626;2023-03-23T17:02:59;15.10;99.90
8313;DHT22;4194;43.408;24.626;2023-03-23T17:05:27;13.40;99.90
8313;DHT22;4194;43.408;24.626;2023-03-23T17:10:21;13.60;99.90
8313;DHT22;4194;43.408;24.626;2023-03-23T17:15:14;12.20;99.90
8313;DHT22;4194;43.408;24.626;2023-03-23T17:17:40;13.00;99.90
8313;DHT22;4194;43.408;24.626;2023-03-23T17:20:06;13.50;99.90
8313;DHT22;4194;43.408;24.626;2023-03-23T17:22:32;12.40;99.90
8313;DHT22;4194;43.408;24.626;2023-03-23T17:24:58;10.70;99.90
8313;DHT22;4194;43.408;24.626;2023-03-23T17:27:24;13.40;99.90
8313;DHT22;4194;43.408;24.626;2023-03-23T17:29:50;13.20;99.90
8313;DHT22;4194;43.408;24.626;2023-03-23T17:32:16;13.60;99.90
8313;DHT22;4194;43.408;24.626;2023-03-23T17:34:42;13.20;99.90
8313;DHT22;4194;43.408;24.626;2023-03-23T17:37:08;10.60;99.90
8313;DHT22;4194;43.408;24.626;2023-03-23T17:39:34;10.50;99.90
8313;DHT22;4194;43.408;24.626;2023-03-23T17:42:00;12.00;99.90
8313;DHT22;4194;43.408;24.626;2023-03-23T17:44:26;12.00;99.90
8313;DHT22;4194;43.408;24.626;2023-03-23T17:46:53;11.30;99.90
8313;DHT22;4194;43.408;24.626;2023-03-23T17:49:21;10.60;99.90
8313;DHT22;4194;43.408;24.626;2023-03-23T17:51:47;11.70;99.90
8313;DHT22;4194;43.408;24.626;2023-03-23T17:54:13;12.00;99.90
8313;DHT22;4194;43.408;24.626;2023-03-23T17:56:39;10.40;99.90
8313;DHT22;4194;43.408;24.626;2023-03-23T17:59:05;11.00;99.90
8313;DHT22;4194;43.408;24.626;2023-03-23T18:01:32;11.10;99.90
8313;DHT22;4194;43.408;24.626;2023-03-23T18:06:24;11.60;99.90
8313;DHT22;4194;43.408;24.626;2023-03-23T18:08:50;12.70;99.90
8313;DHT22;4194;43.408;24.626;2023-03-23T18:11:16;11.10;99.90
8313;DHT22;4194;43.408;24.626;2023-03-23T18:13:42;11.70;99.90
8313;DHT22;4194;43.408;24.626;2023-03-23T18:18:34;11.20;99.90
8313;DHT22;4194;43.408;24.626;2023-03-23T18:21:06;10.70;99.90
8313;DHT22;4194;43.408;24.626;2023-03-23T18:23:33;11.30;99.90
8313;DHT22;4194;43.408;24.626;2023-03-23T18:26:04;11.30;99.90
8313;DHT22;4194;43.408;24.626;2023-03-23T18:28:31;10.30;99.90
8313;DHT22;4194;43.408;24.626;2023-03-23T18:31:08;10.40;99.90
8313;DHT22;4194;43.408;24.626;2023-03-23T18:33:35;11.30;99.90
8313;DHT22;4194;43.408;24.626;2023-03-23T18:38:29;10.70;99.90
8313;DHT22;4194;43.408;24.626;2023-03-23T18:40:55;11.80;99.90
8313;DHT22;4194;43.408;24.626;2023-03-23T18:43:21;9.80;99.90
8313;DHT22;4194;43.408;24.626;2023-03-23T18:45:51;11.30;99.90
8313;DHT22;4194;43.408;24.626;2023-03-23T18:48:19;10.20;99.90
8313;DHT22;4194;43.408;24.626;2023-03-23T18:53:12;10.50;99.90
8313;DHT22;4194;43.408;24.626;2023-03-23T18:55:39;10.70;99.90
8313;DHT22;4194;43.408;24.626;2023-03-23T18:58:05;10.10;99.90
8313;DHT22;4194;43.408;24.626;2023-03-23T19:00:31;10.80;99.90
8313;DHT22;4194;43.408;24.626;2023-03-23T19:02:58;11.70;99.90
8313;DHT22;4194;43.408;24.626;2023-03-23T19:05:24;11.80;99.90
8313;DHT22;4194;43.408;24.626;2023-03-23T19:07:50;11.30;99.90
8313;DHT22;4194;43.408;24.626;2023-03-23T19:10:20;11.50;99.90
8313;DHT22;4194;43.408;24.626;2023-03-23T19:12:47;10.00;99.90
8313;DHT22;4194;43.408;24.626;2023-03-23T19:15:13;9.50;99.90
8313;DHT22;4194;43.408;24.626;2023-03-23T19:20:06;9.90;99.90
8313;DHT22;4194;43.408;24.626;2023-03-23T19:22:35;10.30;99.90
8313;DHT22;4194;43.408;24.626;2023-03-23T19:25:02;9.70;99.90
8313;DHT22;4194;43.408;24.626;2023-03-23T19:27:28;9.20;99.90
8313;DHT22;4194;43.408;24.626;2023-03-23T19:29:53;11.50;99.90
8313;DHT22;4194;43.408;24.626;2023-03-23T19:32:19;9.80;99.90
8313;DHT22;4194;43.408;24.626;2023-03-23T19:34:45;9.20;99.90
8313;DHT22;4194;43.408;24.626;2023-03-23T19:37:11;9.00;99.90
8313;DHT22;4194;43.408;24.626;2023-03-23T19:39:38;10.30;99.90
8313;DHT22;4194;43.408;24.626;2023-03-23T19:42:05;9.80;99.90
8313;DHT22;4194;43.408;24.626;2023-03-23T19:46:59;9.80;99.90